createdAt,value
2018-11-12T00:02:27.302Z,11.02
2018-11-12T00:05:05.114Z,11.06
2018-11-12T00:07:35.991Z,10.97
2018-11-12T00:10:12.721Z,10.95
2018-11-12T00:13:00.751Z,10.94
2018-11-12T00:15:31.859Z,10.96
2018-11-12T00:18:08.038Z,10.90
2018-11-12T00:20:40.538Z,10.93
2018-11-12T00:23:18.482Z,10.89
2018-11-12T00:25:58.562Z,10.92
2018-11-12T00:28:34.514Z,10.94
2018-11-12T00:31:05.633Z,10.94
2018-11-12T00:33:45.045Z,10.92
2018-11-12T00:38:53.472Z,10.96
2018-11-12T00:41:31.832Z,10.98
2018-11-12T00:46:42.850Z,10.99
2018-11-12T00:49:14.788Z,10.92
2018-11-12T00:51:49.095Z,10.90
2018-11-12T00:54:29.434Z,10.93
2018-11-12T03:26:12.051Z,10.47
2018-11-12T03:28:43.672Z,10.57
2018-11-12T03:31:14.869Z,10.46
2018-11-12T03:33:47.300Z,10.55
2018-11-12T03:36:21.626Z,10.53
2018-11-12T03:38:52.775Z,10.56
2018-11-12T03:41:27.217Z,10.51
2018-11-12T03:43:58.190Z,10.47
2018-11-12T03:46:30.386Z,10.54
2018-11-12T03:49:01.319Z,10.62
2018-11-12T03:51:34.909Z,10.52
2018-11-12T03:54:06.452Z,10.42
2018-11-12T03:56:37.398Z,10.50
2018-11-12T03:59:08.071Z,10.48
2018-11-12T04:01:48.059Z,10.48
2018-11-12T04:04:19.085Z,10.39
2018-11-12T04:06:49.686Z,10.53
2018-11-12T04:09:22.523Z,10.53
2018-11-12T04:11:53.504Z,10.48
2018-11-12T04:14:24.626Z,10.49
2018-11-12T04:16:55.205Z,10.57
2018-11-12T04:19:28.259Z,10.48
2018-11-12T04:21:59.252Z,10.50
2018-11-12T04:24:30.908Z,10.57
2018-11-12T04:27:02.032Z,10.48
2018-11-12T04:29:36.332Z,10.44
2018-11-12T04:32:07.345Z,10.53
2018-11-12T04:34:38.310Z,10.55
2018-11-12T04:37:10.071Z,10.51
2018-11-12T04:39:42.030Z,10.53
2018-11-12T04:42:13.390Z,10.53
2018-11-12T04:44:44.907Z,10.50
2018-11-12T04:47:16.283Z,10.54
2018-11-12T04:49:48.638Z,10.59
2018-11-12T04:52:21.326Z,10.64
2018-11-12T04:54:52.819Z,10.58
2018-11-12T04:57:25.348Z,10.50
2018-11-12T04:59:57.005Z,10.51
2018-11-12T05:02:30.254Z,10.55
2018-11-12T05:05:03.006Z,10.58
2018-11-12T05:07:34.611Z,10.70
2018-11-12T05:10:09.452Z,10.78
2018-11-12T05:12:42.538Z,10.86
2018-11-12T05:15:23.297Z,10.89
2018-11-12T05:18:08.188Z,10.71
2018-11-12T05:20:38.806Z,10.56
2018-11-12T05:23:10.036Z,10.54
2018-11-12T05:25:46.787Z,10.64
2018-11-12T05:28:22.528Z,10.67
2018-11-12T05:30:55.628Z,10.81
2018-11-12T05:33:29.414Z,10.88
2018-11-12T05:36:00.856Z,10.93
2018-11-12T05:38:32.724Z,10.93
2018-11-12T05:41:04.814Z,10.95
2018-11-12T05:43:36.915Z,10.84
2018-11-12T05:46:08.072Z,10.74
2018-11-12T05:48:39.692Z,10.74
2018-11-12T05:51:10.905Z,10.80
2018-11-12T05:53:43.373Z,10.84
2018-11-12T05:59:02.343Z,10.73
2018-11-12T06:01:35.965Z,10.84
2018-11-12T06:04:18.013Z,10.98
2018-11-12T06:09:29.475Z,10.90
2018-11-12T06:12:01.327Z,10.87
2018-11-12T06:14:34.624Z,10.79
2018-11-12T06:23:20.121Z,10.81
2018-11-12T06:25:59.435Z,10.91
2018-11-12T06:28:36.931Z,10.87
2018-11-12T06:31:09.936Z,10.82
2018-11-12T06:33:48.243Z,10.83
2018-11-12T06:36:30.834Z,10.82
2018-11-12T06:39:05.374Z,10.87
2018-11-12T06:41:37.193Z,10.94
2018-11-12T06:46:49.979Z,10.94
2018-11-12T06:52:10.969Z,10.94
2018-11-12T06:54:45.224Z,10.90
2018-11-12T06:57:17.165Z,11.01
2018-11-12T06:59:49.103Z,11.07
2018-11-12T07:02:20.839Z,11.13
2018-11-12T07:04:53.201Z,11.11
2018-11-12T07:07:28.230Z,11.11
2018-11-12T07:10:10.708Z,11.10
2018-11-12T07:12:52.312Z,11.15
2018-11-12T07:15:45.734Z,11.10
2018-11-12T07:21:16.464Z,10.93
2018-11-12T07:23:49.030Z,10.96
2018-11-12T07:26:27.757Z,10.92
2018-11-12T07:29:03.789Z,10.88
2018-11-12T07:31:35.574Z,10.87
2018-11-12T07:34:09.588Z,10.93
2018-11-12T07:42:05.086Z,10.90
2018-11-12T07:44:37.737Z,10.94
2018-11-12T07:47:11.423Z,10.95
2018-11-12T07:49:48.672Z,10.94
2018-11-12T07:52:30.066Z,10.99
2018-11-12T07:55:03.774Z,11.02
2018-11-12T07:57:40.294Z,11.07
2018-11-12T08:00:35.034Z,11.20
2018-11-12T08:03:12.782Z,11.23
2018-11-12T10:20:33.219Z,12.77
2018-11-12T10:23:05.314Z,12.70
2018-11-12T10:25:41.225Z,12.71
2018-11-12T10:28:21.268Z,12.75
2018-11-12T10:30:55.662Z,12.74
2018-11-12T10:33:28.014Z,12.79
2018-11-12T10:36:02.484Z,12.79
2018-11-12T10:38:35.379Z,12.75
2018-11-12T10:41:08.900Z,12.79
2018-11-12T10:43:40.368Z,12.84
2018-11-12T10:46:12.027Z,12.78
2018-11-12T10:48:43.711Z,12.67
2018-11-12T10:51:16.931Z,12.78
2018-11-12T10:53:57.767Z,12.66
2018-11-12T10:56:34.410Z,12.60
2018-11-12T11:02:57.857Z,12.50
2018-11-12T11:05:43.022Z,12.47
2018-11-12T11:13:49.133Z,12.51
2018-11-12T11:16:26.170Z,12.44
2018-11-12T11:19:24.307Z,12.42
2018-11-12T11:22:14.468Z,12.38
2018-11-12T11:51:56.342Z,12.27
2018-11-12T11:54:34.758Z,12.28
2018-11-12T11:57:27.888Z,12.25
2018-11-12T12:00:08.315Z,12.32
2018-11-12T12:02:43.590Z,12.35
2018-11-12T12:05:23.653Z,12.42
2018-11-12T12:07:59.346Z,12.36
2018-11-12T12:10:32.108Z,12.28
2018-11-12T12:13:05.981Z,12.25
2018-11-12T12:22:19.724Z,12.25
2018-11-12T12:25:29.074Z,12.29
2018-11-12T12:28:08.696Z,12.29
2018-11-12T12:30:51.174Z,12.28
2018-11-12T12:33:32.592Z,12.29
2018-11-12T12:36:13.877Z,12.28
2018-11-12T12:41:50.008Z,12.26
2018-11-12T12:54:06.925Z,12.14
2018-11-12T12:59:52.340Z,12.13
2018-11-12T13:02:36.793Z,12.08
2018-11-12T13:28:57.093Z,12.24
2018-11-12T13:58:24.598Z,12.10
2018-11-12T15:47:13.198Z,11.78
2018-11-12T15:58:07.088Z,11.79
2018-11-12T16:56:25.299Z,11.82
2018-11-12T17:40:03.134Z,11.69
2018-11-12T18:05:10.589Z,11.54
2018-11-12T18:23:56.823Z,11.51
2018-11-12T18:35:36.192Z,11.50
2018-11-12T18:38:29.361Z,11.52
2018-11-12T18:50:33.308Z,11.65
2018-11-12T18:53:21.418Z,11.57
2018-11-12T18:56:16.574Z,11.57
2018-11-12T18:59:22.697Z,11.58
2018-11-12T19:11:42.202Z,11.65
2018-11-12T19:14:39.112Z,11.59
2018-11-12T19:20:37.677Z,11.58
2018-11-12T19:23:36.858Z,11.66
2018-11-12T19:32:12.386Z,11.67
2018-11-12T19:35:08.987Z,11.61
2018-11-12T20:27:56.687Z,11.57
2018-11-12T20:40:18.553Z,11.49
2018-11-12T20:55:33.289Z,11.30
2018-11-12T20:58:30.920Z,11.40
2018-11-12T21:01:18.601Z,11.33
2018-11-12T21:06:57.602Z,11.41
2018-11-12T21:09:44.472Z,11.34
2018-11-12T21:12:35.907Z,11.36
2018-11-12T21:18:05.150Z,11.42
2018-11-12T21:20:57.052Z,11.42
2018-11-12T21:23:57.224Z,11.39
2018-11-12T21:26:34.811Z,11.40
2018-11-12T21:32:15.112Z,11.35
2018-11-12T21:35:05.362Z,11.36
2018-11-12T21:37:53.112Z,11.31
2018-11-12T21:40:38.080Z,11.35
2018-11-12T21:43:24.892Z,11.35
2018-11-12T21:46:10.709Z,11.37
2018-11-12T21:48:53.963Z,11.36
2018-11-12T21:51:29.645Z,11.43
2018-11-12T21:54:09.905Z,11.46
2018-11-12T21:56:44.353Z,11.45
2018-11-12T22:02:29.735Z,11.42
2018-11-12T22:05:27.551Z,11.43
2018-11-12T22:11:01.758Z,11.29
2018-11-12T22:13:44.180Z,11.19
2018-11-12T22:19:33.913Z,11.26
2018-11-12T22:28:04.333Z,11.31
2018-11-12T22:30:46.776Z,11.21
2018-11-12T22:33:30.988Z,11.28
2018-11-12T22:36:03.317Z,11.30
2018-11-12T22:38:47.957Z,11.35
2018-11-12T22:41:31.965Z,11.36
2018-11-12T22:44:15.913Z,11.36
2018-11-12T22:46:53.833Z,11.22
2018-11-12T22:49:36.431Z,11.28
2018-11-12T22:52:24.911Z,11.25
2018-11-12T22:55:05.794Z,11.23
2018-11-12T22:57:43.735Z,11.22
2018-11-12T23:00:29.971Z,11.26
2018-11-12T23:03:02.832Z,11.16
2018-11-12T23:05:36.674Z,11.11
2018-11-12T23:08:09.665Z,11.10
2018-11-12T23:10:45.323Z,11.01
2018-11-12T23:13:19.589Z,11.10
2018-11-12T23:15:57.018Z,10.96
2018-11-12T23:18:33.385Z,11.06
2018-11-12T23:21:06.244Z,10.98
2018-11-12T23:23:41.480Z,10.94
2018-11-12T23:26:15.158Z,10.88
2018-11-12T23:29:07.599Z,10.82
2018-11-12T23:31:45.950Z,10.81
2018-11-12T23:34:24.389Z,10.71
2018-11-12T23:37:06.029Z,10.73
2018-11-12T23:39:42.110Z,10.70
2018-11-12T23:42:19.069Z,10.58
2018-11-12T23:44:51.483Z,10.59
2018-11-12T23:49:28.425Z,10.56
2018-11-12T23:54:52.882Z,10.57
2018-11-12T23:57:26.472Z,10.45
2018-11-12T23:59:59.304Z,10.59
